Time;durP1;ratioP1;P1;durP2;ratioP2;P2;SDS_P1;SDS_P2;PMS_P1;PMS_P2;Temp;Humidity;BMP_temperature;BMP_pressure;BME280_temperature;BME280_humidity;BME280_pressure;Samples;Min_cycle;Max_cycle;Signal;HPM_P1;HPM_P2
2022/10/07 00:00:39;;;;;;;15.47;2.93;;;9.30;86.20;;;;;;5014814;28;20193;-89
2022/10/07 00:03:05;;;;;;;11.10;3.77;;;9.30;86.10;;;;;;5013472;28;20185;-89
2022/10/07 00:05:31;;;;;;;16.70;5.53;;;9.20;86.30;;;;;;5014689;28;20209;-89
2022/10/07 00:07:56;;;;;;;13.10;3.90;;;9.30;86.50;;;;;;5013404;28;20231;-91
2022/10/07 00:10:22;;;;;;;12.67;3.20;;;9.30;86.30;;;;;;5014561;28;20667;-89
2022/10/07 00:12:47;;;;;;;16.70;3.20;;;9.30;86.10;;;;;;5014709;28;20205;-89
2022/10/07 00:15:14;;;;;;;6.57;3.07;;;9.30;86.20;;;;;;5014470;28;20185;-89
2022/10/07 00:17:39;;;;;;;9.37;2.80;;;9.20;86.40;;;;;;5014849;28;20275;-89
2022/10/07 00:20:06;;;;;;;16.00;3.10;;;9.30;86.30;;;;;;5012970;28;20209;-89
2022/10/07 00:22:31;;;;;;;9.67;2.40;;;9.30;86.30;;;;;;5014395;28;20178;-89
2022/10/07 00:24:57;;;;;;;8.93;2.50;;;9.40;86.10;;;;;;5015230;28;20174;-89
2022/10/07 00:27:22;;;;;;;5.77;2.30;;;9.40;85.80;;;;;;5014400;28;20185;-89
2022/10/07 00:29:48;;;;;;;8.03;3.03;;;9.30;85.60;;;;;;5014445;28;20197;-89
2022/10/07 00:32:14;;;;;;;10.80;3.40;;;9.30;85.50;;;;;;5014188;28;20202;-89
2022/10/07 00:34:39;;;;;;;14.37;3.10;;;9.30;85.30;;;;;;5014158;28;20253;-89
2022/10/07 00:37:05;;;;;;;8.27;2.30;;;9.20;85.20;;;;;;5014102;28;20178;-89
2022/10/07 00:39:30;;;;;;;5.97;2.13;;;9.20;85.40;;;;;;5013018;28;20233;-89
2022/10/07 00:41:56;;;;;;;12.10;2.83;;;9.20;85.30;;;;;;5014375;28;20178;-89
2022/10/07 00:44:30;;;;;;;10.03;3.00;;;9.10;85.40;;;;;;5014330;28;20181;-89
2022/10/07 00:47:05;;;;;;;14.57;3.00;;;9.00;85.90;;;;;;5014238;28;20187;-89
2022/10/07 00:49:39;;;;;;;20.80;3.57;;;9.00;86.30;;;;;;5013918;28;20239;-89
2022/10/07 00:52:05;;;;;;;7.27;2.80;;;9.00;86.50;;;;;;5012716;28;20291;-89
2022/10/07 00:54:30;;;;;;;8.63;3.07;;;8.90;86.50;;;;;;5014136;28;20211;-89
2022/10/07 00:56:58;;;;;;;7.20;2.90;;;8.90;86.70;;;;;;5013786;28;20650;-89
2022/10/07 00:59:24;;;;;;;10.73;2.97;;;8.70;86.70;;;;;;5013755;28;20237;-89
2022/10/07 01:01:50;;;;;;;13.97;3.27;;;8.70;87.00;;;;;;5013314;28;20666;-89
2022/10/07 01:04:16;;;;;;;12.63;2.70;;;8.70;87.10;;;;;;5013798;28;20173;-89
2022/10/07 01:06:44;;;;;;;7.73;3.07;;;8.70;87.00;;;;;;5013742;28;20177;-89
2022/10/07 01:09:11;;;;;;;12.30;3.37;;;8.70;87.10;;;;;;5013881;28;20281;-89
2022/10/07 01:12:03;;;;;;;8.10;2.90;;;8.70;87.10;;;;;;5014046;28;20666;-89
2022/10/07 01:14:45;;;;;;;14.93;3.43;;;8.70;87.10;;;;;;5012963;28;20169;-89
2022/10/07 01:17:41;;;;;;;12.50;3.53;;;8.70;87.30;;;;;;5013862;28;20214;-89
2022/10/07 01:20:25;;;;;;;8.87;3.10;;;8.60;87.30;;;;;;5012134;28;20213;-89
2022/10/07 01:23:36;;;;;;;14.40;3.30;;;8.60;87.40;;;;;;5013617;28;20161;-89
2022/10/07 01:26:21;;;;;;;11.67;2.77;;;8.50;87.60;;;;;;5013590;28;20164;-89
2022/10/07 01:28:53;;;;;;;10.70;3.73;;;8.50;87.60;;;;;;5013415;28;20678;-89
2022/10/07 01:31:25;;;;;;;12.87;4.43;;;8.50;87.70;;;;;;5013684;28;20185;-88
2022/10/07 01:33:52;;;;;;;7.97;3.60;;;8.40;87.90;;;;;;5013430;28;20177;-89
2022/10/07 01:36:22;;;;;;;11.03;4.07;;;8.40;88.00;;;;;;5012158;28;20173;-89
2022/10/07 01:38:52;;;;;;;14.50;5.10;;;8.40;88.10;;;;;;5013339;28;20195;-88
2022/10/07 01:41:20;;;;;;;12.73;4.60;;;8.40;88.20;;;;;;5013277;28;20180;-89
2022/10/07 01:43:47;;;;;;;16.70;5.20;;;8.30;88.40;;;;;;5013606;28;20212;-89
2022/10/07 01:46:18;;;;;;;19.87;4.77;;;8.40;88.50;;;;;;5012053;28;20200;-89
2022/10/07 01:48:48;;;;;;;15.67;3.60;;;8.40;88.60;;;;;;5013177;28;20249;-89
2022/10/07 01:51:15;;;;;;;16.20;3.80;;;8.40;88.50;;;;;;5012024;28;20193;-89
2022/10/07 01:53:57;;;;;;;12.53;3.57;;;8.40;88.50;;;;;;5013247;28;20200;-89
2022/10/07 01:56:23;;;;;;;16.07;3.30;;;8.40;88.40;;;;;;5013106;28;20173;-88
2022/10/07 01:59:33;;;;;;;10.73;3.40;;;8.30;88.50;;;;;;5011910;28;20190;-89
2022/10/07 02:02:15;;;;;;;13.00;4.87;;;8.30;88.50;;;;;;5011995;28;20170;-88
2022/10/07 02:05:10;;;;;;;16.63;4.17;;;8.30;88.60;;;;;;5013145;28;20162;-88
2022/10/07 02:08:18;;;;;;;12.40;3.80;;;8.30;88.80;;;;;;5013109;28;20173;-89
2022/10/07 02:11:03;;;;;;;10.73;4.07;;;8.30;89.00;;;;;;5012925;28;20208;-89
2022/10/07 02:13:46;;;;;;;14.80;4.00;;;8.30;88.90;;;;;;5012577;28;20197;-89
2022/10/07 02:16:18;;;;;;;9.57;3.90;;;8.30;89.00;;;;;;5016797;28;20172;-88
2022/10/07 02:18:48;;;;;;;14.33;4.27;;;8.30;88.90;;;;;;5016627;28;20193;-88
2022/10/07 02:21:18;;;;;;;12.13;4.00;;;8.30;88.80;;;;;;5016712;28;20169;-88
2022/10/07 02:23:46;;;;;;;14.17;4.70;;;8.30;88.80;;;;;;5017008;28;20166;-89
2022/10/07 02:26:15;;;;;;;20.67;4.20;;;8.20;88.70;;;;;;5016134;28;20619;-89
2022/10/07 02:28:43;;;;;;;12.03;5.90;;;8.20;88.80;;;;;;5016639;28;20534;-88
2022/10/07 02:31:11;;;;;;;17.63;4.87;;;8.20;89.00;;;;;;5015127;28;20177;-89
2022/10/07 02:33:41;;;;;;;12.23;4.60;;;8.10;89.00;;;;;;5016484;28;20177;-89
2022/10/07 02:36:12;;;;;;;15.27;4.50;;;8.20;89.00;;;;;;5016456;28;20162;-89
2022/10/07 02:38:38;;;;;;;11.43;4.37;;;8.20;89.10;;;;;;5015108;28;20177;-89
2022/10/07 02:41:30;;;;;;;16.23;6.50;;;8.20;89.00;;;;;;5016234;28;20723;-89
2022/10/07 02:44:03;;;;;;;17.00;4.93;;;8.20;89.00;;;;;;5015002;28;20633;-89
2022/10/07 02:46:35;;;;;;;17.87;5.00;;;8.20;89.00;;;;;;5016776;28;20522;-89
2022/10/07 02:49:11;;;;;;;12.77;4.37;;;8.20;89.00;;;;;;5014896;28;20221;-89
2022/10/07 02:51:45;;;;;;;11.67;4.40;;;8.10;88.80;;;;;;5016018;28;20189;-89
2022/10/07 02:54:15;;;;;;;15.37;6.10;;;8.10;88.90;;;;;;5014956;28;20200;-89
2022/10/07 02:56:42;;;;;;;21.17;4.70;;;8.10;89.00;;;;;;5014911;28;20261;-89
2022/10/07 02:59:10;;;;;;;14.30;5.10;;;8.00;89.10;;;;;;5014675;28;20197;-89
2022/10/07 03:01:44;;;;;;;14.63;4.90;;;8.00;89.10;;;;;;5015984;28;20181;-89
2022/10/07 03:04:10;;;;;;;17.17;5.20;;;8.00;89.10;;;;;;5015807;28;20161;-89
2022/10/07 03:06:35;;;;;;;11.97;5.03;;;8.00;89.30;;;;;;5014538;28;20200;-89
2022/10/07 03:09:02;;;;;;;14.97;5.50;;;8.00;89.40;;;;;;5015692;28;20683;-89
2022/10/07 03:11:28;;;;;;;11.47;5.07;;;8.00;89.40;;;;;;5015659;28;20621;-89
2022/10/07 03:13:53;;;;;;;13.77;4.90;;;8.00;89.50;;;;;;5015875;28;20189;-89
2022/10/07 03:16:19;;;;;;;12.93;5.00;;;8.00;89.50;;;;;;5015696;28;20312;-88
2022/10/07 03:18:45;;;;;;;14.60;4.97;;;8.00;89.50;;;;;;5015692;28;20209;-89
2022/10/07 03:21:11;;;;;;;15.00;5.33;;;8.00;89.50;;;;;;5015476;28;20634;-89
2022/10/07 03:23:37;;;;;;;17.90;5.33;;;8.00;89.50;;;;;;5015432;28;20185;-89
2022/10/07 03:26:02;;;;;;;10.40;4.70;;;8.00;89.40;;;;;;5015064;28;20173;-89
2022/10/07 03:28:35;;;;;;;15.37;5.43;;;8.10;89.30;;;;;;5015826;28;20176;-88
2022/10/07 03:31:08;;;;;;;18.03;5.40;;;8.10;89.40;;;;;;5015391;28;20158;-89
2022/10/07 03:33:36;;;;;;;15.43;5.17;;;8.10;89.20;;;;;;5014348;28;20188;-89
2022/10/07 03:36:02;;;;;;;8.27;4.70;;;8.10;89.20;;;;;;5015268;28;20572;-89
2022/10/07 03:38:27;;;;;;;15.50;4.43;;;8.20;89.20;;;;;;5015081;28;20660;-89
2022/10/07 03:40:53;;;;;;;10.40;4.57;;;8.10;89.10;;;;;;5013995;28;20174;-89
2022/10/07 03:43:19;;;;;;;11.57;4.33;;;8.10;89.00;;;;;;5015235;28;20551;-89
2022/10/07 03:45:48;;;;;;;19.80;5.10;;;8.10;88.90;;;;;;5015191;28;20177;-89
2022/10/07 03:48:14;;;;;;;16.87;4.90;;;8.10;88.90;;;;;;5015078;28;20181;-89
2022/10/07 03:50:40;;;;;;;14.03;4.53;;;8.00;88.80;;;;;;5014885;28;20193;-89
2022/10/07 03:53:06;;;;;;;14.43;4.70;;;8.00;88.70;;;;;;5015028;28;20189;-88
2022/10/07 03:55:31;;;;;;;14.47;4.60;;;8.00;88.70;;;;;;5014860;28;20172;-88
2022/10/07 03:57:57;;;;;;;15.67;4.80;;;7.90;88.70;;;;;;5014884;28;20173;-89
2022/10/07 04:00:24;;;;;;;11.37;4.67;;;7.90;88.70;;;;;;5014746;28;20197;-89
2022/10/07 04:02:51;;;;;;;19.23;4.50;;;7.90;88.60;;;;;;5014990;28;20170;-89
2022/10/07 04:05:18;;;;;;;16.80;4.80;;;7.90;88.70;;;;;;5014719;28;20667;-89
2022/10/07 04:07:45;;;;;;;15.87;5.10;;;7.90;88.50;;;;;;5014563;28;20228;-89
2022/10/07 04:10:13;;;;;;;15.07;4.53;;;7.90;88.30;;;;;;5014536;28;20232;-89
2022/10/07 04:12:39;;;;;;;13.60;4.50;;;7.80;88.40;;;;;;5014537;28;20193;-89
2022/10/07 04:15:05;;;;;;;13.30;3.97;;;7.70;88.50;;;;;;5014535;28;20252;-89
2022/10/07 04:17:30;;;;;;;12.00;3.77;;;7.80;88.60;;;;;;5014470;28;20635;-89
2022/10/07 04:19:56;;;;;;;12.50;3.80;;;7.70;88.60;;;;;;5014392;28;20204;-88
2022/10/07 04:22:23;;;;;;;10.03;3.70;;;7.70;88.50;;;;;;5014540;28;20678;-89
2022/10/07 04:25:32;;;;;;;9.40;3.70;;;7.70;88.70;;;;;;5014332;28;20647;-88
2022/10/07 04:27:35;;;;;;;11.47;3.83;;;7.70;88.70;;;;;;5014357;28;20558;-89
2022/10/07 04:30:02;;;;;;;15.57;3.93;;;7.70;88.70;;;;;;5014203;28;20197;-89
2022/10/07 04:32:27;;;;;;;14.67;3.83;;;7.70;88.70;;;;;;5014158;28;20201;-89
2022/10/07 04:34:53;;;;;;;18.17;4.40;;;7.60;88.60;;;;;;5014232;28;20264;-89
2022/10/07 04:37:18;;;;;;;15.30;3.37;;;7.70;88.60;;;;;;5013530;28;20181;-89
2022/10/07 04:39:44;;;;;;;9.37;3.07;;;7.70;88.70;;;;;;5012795;28;20197;-89
2022/10/07 04:43:17;;;;;;;7.33;3.00;;;7.70;88.50;;;;;;5014080;28;20265;-89
2022/10/07 04:44:57;;;;;;;14.77;3.87;;;7.70;88.60;;;;;;5013914;28;20243;-89
2022/10/07 04:47:23;;;;;;;9.50;2.83;;;7.70;88.40;;;;;;5014046;28;20651;-89
2022/10/07 04:49:48;;;;;;;12.90;3.33;;;7.70;88.40;;;;;;5013882;28;20201;-89
2022/10/07 04:52:14;;;;;;;18.80;3.93;;;7.70;88.30;;;;;;5012905;28;20232;-88
2022/10/07 04:54:39;;;;;;;10.73;3.43;;;7.70;88.20;;;;;;5013948;28;20181;-88
2022/10/07 04:57:05;;;;;;;12.37;3.47;;;7.70;88.00;;;;;;5014408;28;20173;-89
2022/10/07 04:59:31;;;;;;;16.60;3.37;;;7.50;88.00;;;;;;5013689;28;20200;-89
2022/10/07 05:01:57;;;;;;;11.30;3.50;;;7.50;88.20;;;;;;5013717;28;20604;-89
2022/10/07 05:04:22;;;;;;;7.93;3.73;;;7.40;88.30;;;;;;5014007;28;20514;-88
2022/10/07 05:06:48;;;;;;;10.97;3.77;;;7.40;88.40;;;;;;5013666;28;20228;-89
2022/10/07 05:09:13;;;;;;;17.10;4.10;;;7.30;88.50;;;;;;5013570;28;20193;-89
2022/10/07 05:11:39;;;;;;;8.00;3.63;;;7.30;88.60;;;;;;5013852;28;20197;-89
2022/10/07 05:14:04;;;;;;;11.97;4.53;;;7.20;88.80;;;;;;5014022;28;20231;-89
2022/10/07 05:16:30;;;;;;;10.50;4.07;;;7.20;89.00;;;;;;5013591;28;20590;-89
2022/10/07 05:18:56;;;;;;;12.43;3.83;;;7.10;89.50;;;;;;5013424;28;20810;-88
2022/10/07 05:21:21;;;;;;;13.67;5.03;;;7.10;89.70;;;;;;5012423;28;20648;-88
2022/10/07 05:23:47;;;;;;;10.70;4.70;;;7.10;89.90;;;;;;5013575;28;20640;-88
2022/10/07 05:26:14;;;;;;;10.67;4.60;;;7.10;90.10;;;;;;5013492;28;20170;-88
2022/10/07 05:28:40;;;;;;;19.23;4.90;;;7.10;90.30;;;;;;5013676;28;20172;-88
2022/10/07 05:31:08;;;;;;;12.00;4.30;;;7.10;90.40;;;;;;5013351;28;20166;-89
2022/10/07 05:33:35;;;;;;;14.17;4.60;;;7.10;90.50;;;;;;5013303;28;20205;-89
2022/10/07 05:36:01;;;;;;;13.50;4.50;;;7.00;90.50;;;;;;5013413;28;20268;-88
2022/10/07 05:38:27;;;;;;;9.63;4.50;;;7.10;90.60;;;;;;5013283;28;20197;-88
2022/10/07 05:41:01;;;;;;;9.67;4.07;;;7.20;90.70;;;;;;5013368;28;20165;-89
2022/10/07 05:43:29;;;;;;;13.30;4.87;;;7.20;90.60;;;;;;5013411;28;20249;-89
2022/10/07 05:46:03;;;;;;;18.73;4.73;;;7.20;90.50;;;;;;5013348;28;20178;-89
2022/10/07 05:48:30;;;;;;;10.77;4.07;;;7.30;90.50;;;;;;5015447;28;20180;-89
2022/10/07 05:50:56;;;;;;;14.27;4.40;;;7.20;90.30;;;;;;5017202;28;20640;-89
2022/10/07 05:53:26;;;;;;;17.17;4.50;;;7.20;90.40;;;;;;5017090;28;20251;-89
2022/10/07 05:55:52;;;;;;;13.53;4.73;;;7.30;90.40;;;;;;5017349;28;20178;-88
2022/10/07 05:58:18;;;;;;;12.93;4.50;;;7.30;90.30;;;;;;5017091;28;20223;-89
2022/10/07 06:00:55;;;;;;;17.57;5.03;;;7.30;90.20;;;;;;5017012;28;20196;-88
2022/10/07 06:03:21;;;;;;;10.23;3.77;;;7.30;90.20;;;;;;5017032;28;20670;-88
2022/10/07 06:05:49;;;;;;;12.87;4.20;;;7.30;90.20;;;;;;5017072;28;20205;-89
2022/10/07 06:08:17;;;;;;;7.93;4.20;;;7.30;90.20;;;;;;5017227;28;20663;-88
2022/10/07 06:13:26;;;;;;;15.60;4.67;;;7.30;90.20;;;;;;5017205;28;20574;-88
2022/10/07 06:15:52;;;;;;;13.93;4.53;;;7.30;90.20;;;;;;5017068;28;20170;-89
2022/10/07 06:18:17;;;;;;;14.00;4.07;;;7.40;90.20;;;;;;5016956;28;20168;-89
2022/10/07 06:20:52;;;;;;;16.73;5.47;;;7.50;90.10;;;;;;5016679;28;20212;-89
2022/10/07 06:23:18;;;;;;;17.17;4.40;;;7.50;90.00;;;;;;5016855;28;20156;-89
2022/10/07 06:25:51;;;;;;;10.83;4.07;;;7.40;89.90;;;;;;5016558;28;20188;-88
2022/10/07 06:28:16;;;;;;;9.47;4.40;;;7.40;89.90;;;;;;5016575;28;20166;-89
2022/10/07 06:30:42;;;;;;;11.07;4.53;;;7.40;90.10;;;;;;5016440;28;20244;-89
2022/10/07 06:33:07;;;;;;;17.83;4.60;;;7.40;90.20;;;;;;5016379;28;20252;-88
2022/10/07 06:35:33;;;;;;;20.20;4.60;;;7.50;90.30;;;;;;5015248;28;20557;-88
2022/10/07 06:37:59;;;;;;;15.67;4.63;;;7.60;90.30;;;;;;5016608;28;20178;-88
2022/10/07 06:40:25;;;;;;;14.83;4.83;;;7.60;90.30;;;;;;5016290;28;20189;-88
2022/10/07 06:42:51;;;;;;;17.13;5.77;;;7.60;90.40;;;;;;5016256;28;20225;-89
2022/10/07 06:45:16;;;;;;;12.70;4.53;;;7.70;90.40;;;;;;5016175;28;20181;-89
2022/10/07 06:47:42;;;;;;;11.17;5.10;;;7.70;90.40;;;;;;5016412;28;20259;-88
2022/10/07 06:50:07;;;;;;;15.53;5.03;;;7.80;90.50;;;;;;5016062;28;20197;-89
2022/10/07 06:52:33;;;;;;;15.33;4.60;;;7.90;90.60;;;;;;5016006;28;20197;-88
2022/10/07 06:54:58;;;;;;;12.73;4.57;;;8.20;90.60;;;;;;5016077;28;20177;-88
2022/10/07 06:57:24;;;;;;;19.40;5.27;;;8.30;90.30;;;;;;5015975;28;20580;-89
2022/10/07 06:59:50;;;;;;;16.40;5.30;;;8.40;90.10;;;;;;5015165;28;20726;-88
2022/10/07 07:02:15;;;;;;;15.27;4.50;;;8.60;89.70;;;;;;5015988;28;20170;-88
2022/10/07 07:04:41;;;;;;;16.17;4.37;;;8.80;89.40;;;;;;5016025;28;20188;-88
2022/10/07 07:07:06;;;;;;;18.13;5.37;;;8.90;89.20;;;;;;5015795;28;20232;-88
2022/10/07 07:09:32;;;;;;;12.40;4.43;;;8.90;89.20;;;;;;5015712;28;20209;-88
2022/10/07 07:11:58;;;;;;;13.70;5.27;;;9.00;89.20;;;;;;5014864;28;20197;-89
2022/10/07 07:14:24;;;;;;;23.20;4.33;;;9.10;89.10;;;;;;5015718;28;20176;-89
2022/10/07 07:16:51;;;;;;;14.10;4.67;;;9.20;88.90;;;;;;5015649;28;20177;-88
2022/10/07 07:19:16;;;;;;;10.87;4.47;;;9.30;88.80;;;;;;5015591;28;20201;-89
2022/10/07 07:21:42;;;;;;;14.20;4.23;;;9.30;88.90;;;;;;5015512;28;20185;-89
2022/10/07 07:24:08;;;;;;;23.40;5.03;;;9.30;89.00;;;;;;5015525;28;20165;-89
2022/10/07 07:26:34;;;;;;;12.30;4.53;;;9.50;88.90;;;;;;5015869;28;20173;-87
2022/10/07 07:29:03;;;;;;;12.13;4.70;;;9.60;88.60;;;;;;5016227;28;20571;-88
2022/10/07 07:31:32;;;;;;;16.73;5.10;;;9.70;88.50;;;;;;5014069;28;20180;-88
2022/10/07 07:34:00;;;;;;;20.73;4.50;;;9.70;88.40;;;;;;5014077;28;20180;-88
2022/10/07 07:36:28;;;;;;;16.83;4.17;;;9.80;88.40;;;;;;5014273;28;20180;-88
2022/10/07 07:39:00;;;;;;;15.60;4.13;;;9.90;88.30;;;;;;5013872;28;20296;-87
2022/10/07 07:41:29;;;;;;;13.10;3.93;;;10.10;88.10;;;;;;5014780;28;20181;-87
2022/10/07 07:43:58;;;;;;;9.73;3.77;;;10.30;87.10;;;;;;5015151;28;20174;-88
2022/10/07 07:46:28;;;;;;;10.83;4.53;;;10.60;86.40;;;;;;5013885;28;20276;-88
2022/10/07 07:48:54;;;;;;;17.63;3.60;;;10.70;85.30;;;;;;5014997;28;20190;-87
2022/10/07 07:51:21;;;;;;;9.43;3.60;;;10.80;85.40;;;;;;5013827;28;20313;-87
2022/10/07 07:53:48;;;;;;;14.33;4.00;;;10.80;85.10;;;;;;5015014;28;20177;-87
2022/10/07 07:56:14;;;;;;;14.03;4.57;;;11.00;84.90;;;;;;5013693;28;20181;-87
2022/10/07 07:58:40;;;;;;;12.30;3.20;;;11.20;84.90;;;;;;5014761;28;20243;-88
2022/10/07 08:01:14;;;;;;;12.13;3.13;;;11.20;84.90;;;;;;5014026;28;20170;-88
2022/10/07 08:03:42;;;;;;;16.13;3.70;;;11.20;83.80;;;;;;5015401;28;20161;-87
2022/10/07 08:06:09;;;;;;;12.63;3.80;;;11.10;83.90;;;;;;5013529;28;20177;-88
2022/10/07 08:08:35;;;;;;;17.60;3.93;;;11.00;84.70;;;;;;5014636;28;20185;-88
2022/10/07 08:11:08;;;;;;;17.60;4.00;;;11.00;84.80;;;;;;5012949;28;20639;-87
2022/10/07 08:13:35;;;;;;;16.87;4.50;;;11.00;84.40;;;;;;5014890;28;20239;-88
2022/10/07 08:16:03;;;;;;;16.07;4.10;;;11.20;84.70;;;;;;5014561;28;20273;-88
2022/10/07 08:18:32;;;;;;;16.00;4.13;;;11.30;84.00;;;;;;5013012;28;20178;-87
2022/10/07 08:20:59;;;;;;;15.83;3.77;;;11.30;83.50;;;;;;5014739;28;20555;-89
2022/10/07 08:23:25;;;;;;;15.63;3.67;;;11.30;84.10;;;;;;5013190;28;20185;-88
2022/10/07 08:25:59;;;;;;;12.80;3.23;;;11.30;83.60;;;;;;5014372;28;20176;-89
2022/10/07 08:28:26;;;;;;;9.10;2.87;;;11.40;83.80;;;;;;5014350;28;20166;-88
2022/10/07 08:30:52;;;;;;;14.63;3.80;;;11.40;83.30;;;;;;5014295;28;20193;-89
2022/10/07 08:33:19;;;;;;;15.27;3.50;;;11.70;83.60;;;;;;5014724;28;20209;-88
2022/10/07 08:35:56;;;;;;;21.30;4.67;;;11.80;83.40;;;;;;5014205;28;20216;-89
2022/10/07 08:38:22;;;;;;;15.30;3.93;;;12.00;83.10;;;;;;5014445;28;20185;-88
2022/10/07 08:40:49;;;;;;;12.93;3.40;;;12.20;83.10;;;;;;5014292;28;20193;-88
2022/10/07 08:43:17;;;;;;;12.43;3.57;;;12.30;82.20;;;;;;5014071;28;20671;-89
2022/10/07 08:45:43;;;;;;;11.07;3.63;;;12.40;83.10;;;;;;5012769;28;20201;-89
2022/10/07 08:48:16;;;;;;;26.40;5.50;;;12.50;81.40;;;;;;5014029;28;20204;-89
2022/10/07 08:50:55;;;;;;;16.77;3.70;;;12.60;82.10;;;;;;5013891;28;20255;-90
2022/10/07 08:53:29;;;;;;;14.97;3.93;;;12.70;81.90;;;;;;5014117;28;20185;-89
2022/10/07 08:56:06;;;;;;;16.60;3.50;;;12.80;81.20;;;;;;5014154;28;20612;-89
2022/10/07 08:58:56;;;;;;;14.33;3.00;;;12.90;81.70;;;;;;5012596;28;20261;-90
2022/10/07 09:01:45;;;;;;;22.20;5.23;;;13.00;81.20;;;;;;5014318;28;20158;-88
2022/10/07 09:04:52;;;;;;;9.67;2.30;;;12.90;81.80;;;;;;5013599;28;20580;-88
2022/10/07 09:07:36;;;;;;;15.23;3.67;;;12.90;81.10;;;;;;5016184;28;20592;-90
2022/10/07 09:10:08;;;;;;;21.93;4.87;;;13.00;81.70;;;;;;5012509;28;20197;-89
2022/10/07 09:12:37;;;;;;;18.33;4.33;;;13.20;80.80;;;;;;5012643;28;20209;-87
2022/10/07 09:15:05;;;;;;;19.47;4.13;;;13.30;80.80;;;;;;5012636;28;20268;-90
2022/10/07 09:17:36;;;;;;;16.87;3.93;;;13.50;80.60;;;;;;5014801;28;20208;-89
2022/10/07 09:20:10;;;;;;;17.17;3.03;;;13.50;80.00;;;;;;5020941;28;20714;-90
2022/10/07 09:22:38;;;;;;;14.80;2.97;;;13.70;80.20;;;;;;5020544;28;20161;-90
2022/10/07 09:25:10;;;;;;;12.87;3.63;;;13.70;79.50;;;;;;5020432;28;20200;-91
2022/10/07 09:27:35;;;;;;;8.03;2.23;;;13.90;79.60;;;;;;5021226;28;20185;-90
2022/10/07 09:30:02;;;;;;;12.03;2.57;;;13.90;79.00;;;;;;5021704;28;20200;-91
2022/10/07 09:32:27;;;;;;;19.97;3.57;;;14.00;79.60;;;;;;5020058;28;20295;-90
2022/10/07 09:34:53;;;;;;;6.93;2.37;;;14.00;78.50;;;;;;5023409;28;20174;-91
2022/10/07 09:37:26;;;;;;;24.83;3.33;;;14.10;77.90;;;;;;5023354;28;20200;-90
2022/10/07 09:39:54;;;;;;;21.67;3.90;;;14.20;78.00;;;;;;5021826;28;20197;-90
2022/10/07 09:42:25;;;;;;;15.40;2.73;;;14.30;78.30;;;;;;5020813;28;20178;-89
2022/10/07 09:44:53;;;;;;;18.57;2.90;;;14.40;77.50;;;;;;5021172;28;20656;-89
2022/10/07 09:47:22;;;;;;;12.00;2.67;;;14.40;77.50;;;;;;5021763;28;20178;-90
2022/10/07 09:49:55;;;;;;;17.53;2.80;;;14.70;77.60;;;;;;5019632;28;20220;-90
2022/10/07 09:52:24;;;;;;;12.50;2.90;;;14.70;76.80;;;;;;5019124;28;20200;-91
2022/10/07 09:54:52;;;;;;;15.03;3.33;;;14.70;77.20;;;;;;5018877;28;20220;-91
2022/10/07 09:57:32;;;;;;;13.00;3.30;;;14.80;76.60;;;;;;5019273;28;20197;-92
2022/10/07 10:00:16;;;;;;;18.73;3.63;;;14.90;76.70;;;;;;5019545;28;20185;-91
2022/10/07 10:02:56;;;;;;;12.17;2.73;;;15.10;76.60;;;;;;5018607;28;20162;-90
2022/10/07 10:05:34;;;;;;;9.68;4.03;;;15.10;76.30;;;;;;5012070;28;20170;-89
2022/10/07 10:08:21;;;;;;;7.90;2.50;;;15.20;75.80;;;;;;5011901;28;20722;-89
2022/10/07 10:10:55;;;;;;;12.40;4.20;;;15.30;75.00;;;;;;5011762;28;20254;-88
2022/10/07 10:13:31;;;;;;;16.20;3.43;;;15.50;75.10;;;;;;5011769;28;20204;-89
2022/10/07 10:15:57;;;;;;;11.43;2.43;;;15.40;74.20;;;;;;5012013;28;20161;-89
2022/10/07 10:18:34;;;;;;;12.52;3.00;;;15.50;75.40;;;;;;5012312;28;20543;-88
2022/10/07 10:21:14;;;;;;;17.60;3.08;;;15.70;74.10;;;;;;5012029;28;20228;-86
2022/10/07 10:23:45;;;;;;;15.73;3.00;;;15.60;73.20;;;;;;5012944;28;20169;-88
2022/10/07 10:26:25;;;;;;;20.05;3.67;;;15.70;73.90;;;;;;5011807;28;20176;-87
2022/10/07 10:29:11;;;;;;;13.38;3.90;;;15.70;73.10;;;;;;5013291;28;20200;-87
2022/10/07 10:32:19;;;;;;;15.07;3.35;;;15.70;73.10;;;;;;5012918;28;20168;-87
2022/10/07 10:35:22;;;;;;;11.57;2.27;;;15.80;73.20;;;;;;5012891;28;20170;-87
2022/10/07 10:38:11;;;;;;;20.55;2.88;;;15.80;73.40;;;;;;4998395;28;20188;-87
2022/10/07 10:40:42;;;;;;;13.45;2.78;;;16.00;72.90;;;;;;5016239;28;20208;-87
2022/10/07 10:43:26;;;;;;;15.40;3.17;;;16.00;72.80;;;;;;5015221;28;20182;-87
2022/10/07 10:46:15;;;;;;;13.88;3.13;;;16.20;72.00;;;;;;5016277;28;20179;-87
2022/10/07 10:48:49;;;;;;;16.50;3.20;;;16.20;71.90;;;;;;5015073;28;20645;-87
2022/10/07 10:51:33;;;;;;;14.35;2.75;;;16.20;71.40;;;;;;5015070;28;20275;-87
2022/10/07 10:54:12;;;;;;;11.45;2.75;;;16.40;70.70;;;;;;5016018;28;20161;-88
2022/10/07 10:56:42;;;;;;;13.82;2.90;;;16.30;70.60;;;;;;5016370;28;20517;-88
2022/10/07 10:59:28;;;;;;;11.68;2.78;;;16.30;70.50;;;;;;5015324;28;20727;-88
2022/10/07 11:02:28;;;;;;;12.95;2.78;;;16.40;70.20;;;;;;5015480;28;20188;-88
2022/10/07 11:05:18;;;;;;;9.50;2.35;;;16.40;70.20;;;;;;5014756;28;20355;-89
2022/10/07 11:07:49;;;;;;;10.82;2.95;;;16.60;69.40;;;;;;5015896;28;20663;-88
2022/10/07 11:10:35;;;;;;;6.60;2.00;;;16.50;69.90;;;;;;5015748;28;20221;-89
2022/10/07 11:13:29;;;;;;;10.43;2.67;;;16.70;69.10;;;;;;5015682;28;20200;-88
2022/10/07 11:16:06;;;;;;;9.77;2.80;;;16.50;70.00;;;;;;5005598;28;20189;-88
2022/10/07 11:18:38;;;;;;;9.35;2.45;;;16.70;70.20;;;;;;5014216;28;20200;-88
2022/10/07 11:21:07;;;;;;;12.38;2.88;;;16.50;69.40;;;;;;5014360;28;20185;-88
2022/10/07 11:23:54;;;;;;;14.88;3.13;;;16.70;70.30;;;;;;5014371;28;20188;-89
2022/10/07 11:26:38;;;;;;;18.75;2.47;;;16.90;70.00;;;;;;5015061;28;20228;-88
2022/10/07 11:29:22;;;;;;;15.18;2.95;;;16.90;68.10;;;;;;5014170;28;20208;-88
2022/10/07 11:32:11;;;;;;;10.80;2.72;;;16.80;69.00;;;;;;5015379;28;20196;-88
2022/10/07 11:34:52;;;;;;;20.02;3.25;;;17.00;69.20;;;;;;4996997;28;20185;-88
2022/10/07 11:37:56;;;;;;;16.02;4.50;;;17.00;68.90;;;;;;5014186;28;20173;-88
2022/10/07 11:40:25;;;;;;;10.98;2.60;;;17.00;67.90;;;;;;5015311;28;20189;-88
2022/10/07 11:42:53;;;;;;;10.10;2.15;;;16.80;67.60;;;;;;5015133;28;20184;-88
2022/10/07 11:45:36;;;;;;;12.02;2.45;;;16.90;68.40;;;;;;5015011;28;20184;-88
2022/10/07 11:48:08;;;;;;;14.43;4.47;;;17.00;67.70;;;;;;5013979;28;20651;-89
2022/10/07 11:50:55;;;;;;;14.15;3.28;;;16.90;67.40;;;;;;5013769;28;20209;-88
2022/10/07 11:53:25;;;;;;;11.07;2.75;;;17.00;67.50;;;;;;5013696;28;20255;-89
2022/10/07 11:56:18;;;;;;;12.93;2.70;;;17.10;67.20;;;;;;5013757;28;20182;-88
2022/10/07 11:58:47;;;;;;;10.77;2.67;;;16.90;66.70;;;;;;5014471;28;20200;-88
2022/10/07 12:01:40;;;;;;;12.93;2.45;;;17.00;66.90;;;;;;5014862;28;20244;-88
2022/10/07 12:04:29;;;;;;;11.38;2.35;;;16.90;66.90;;;;;;5013686;28;20185;-89
2022/10/07 12:07:33;;;;;;;9.80;2.40;;;16.90;66.50;;;;;;5014292;28;20192;-88
2022/10/07 12:10:04;;;;;;;11.40;2.70;;;16.80;66.80;;;;;;5013711;28;20196;-89
2022/10/07 12:12:43;;;;;;;8.23;2.70;;;16.90;67.10;;;;;;5025589;28;20208;-92
2022/10/07 12:15:43;;;;;;;16.70;4.78;;;17.10;66.80;;;;;;5034281;28;20193;-91
2022/10/07 12:18:09;;;;;;;9.02;2.42;;;17.00;67.50;;;;;;5034045;28;20655;-91
2022/10/07 12:20:50;;;;;;;15.82;4.03;;;17.10;66.90;;;;;;5033034;28;20212;-92
2022/10/07 12:23:19;;;;;;;10.45;2.60;;;17.10;67.20;;;;;;5035271;28;20177;-91
2022/10/07 12:25:49;;;;;;;9.40;2.88;;;17.20;66.60;;;;;;5034555;28;20161;-91
2022/10/07 12:28:22;;;;;;;11.27;3.22;;;17.30;66.60;;;;;;5034143;28;20196;-91
2022/10/07 12:30:51;;;;;;;10.02;2.80;;;17.30;66.30;;;;;;5035730;28;20205;-91
2022/10/07 12:33:43;;;;;;;11.80;2.83;;;17.30;65.90;;;;;;5035275;28;20213;-91
2022/10/07 12:36:21;;;;;;;14.90;3.20;;;17.20;66.70;;;;;;4999897;28;20196;-91
2022/10/07 12:38:56;;;;;;;24.35;3.38;;;17.20;66.70;;;;;;5035460;28;20223;-92
2022/10/07 12:41:26;;;;;;;8.90;2.45;;;17.40;66.10;;;;;;5034034;28;20188;-91
2022/10/07 12:44:15;;;;;;;14.25;2.67;;;17.30;65.20;;;;;;5033281;28;20162;-92
2022/10/07 12:46:53;;;;;;;14.30;3.00;;;17.50;66.50;;;;;;5036068;28;20181;-91
2022/10/07 12:49:18;;;;;;;16.60;4.15;;;17.80;66.30;;;;;;5032338;28;20292;-91
2022/10/07 12:51:44;;;;;;;11.30;3.05;;;17.70;64.40;;;;;;5035746;28;20181;-92
2022/10/07 12:54:19;;;;;;;12.48;3.10;;;17.80;65.10;;;;;;5033891;28;20169;-91
2022/10/07 12:56:48;;;;;;;12.90;2.90;;;17.90;65.40;;;;;;5029328;28;20181;-91
2022/10/07 13:02:25;;;;;;;8.70;2.58;;;18.00;65.00;;;;;;5035094;28;20173;-91
2022/10/07 13:05:13;;;;;;;15.65;2.75;;;17.90;64.20;;;;;;5034488;28;20269;-91
2022/10/07 13:07:57;;;;;;;10.52;2.60;;;18.00;64.50;;;;;;5034624;28;20173;-91
2022/10/07 13:10:31;;;;;;;13.25;2.80;;;18.00;65.00;;;;;;5035151;28;20201;-91
2022/10/07 13:13:09;;;;;;;10.13;2.80;;;17.70;63.80;;;;;;5033673;28;20204;-91